Weather at Fort Lauderdale Hollywood International Airport

Public forecast

Using degrees Fahrenheit for public forecast. Weather courtesy of forecast.io.

Current aviation weather report (METAR) for Fort Lauderdale Hollywood International Airport

Retrieved 2021/07/29 08:53 UTC (51 minutes ago):

KFLL 290853Z 33005KT 10SM FEW250 25/24 A2999

Aviation forecast (TAF) for Fort Lauderdale Hollywood International Airport

Retrieved 2021/07/29 06:25 UTC (3 hours ago):

TAF KFLL 290520Z 2906/3012 VRB03KT P6SM SCT030 SCT250 FM291600 14008KT P6SM VCTS SCT025CB BKN050 FM300200 VRB03KT P6SM SCT030 BKN050